Aimaru — JD3994 — position and weather

sailwx.info

Track history (hours):
 
Tides and Currents Weather Stations Pressure Air Temp Water Temp Dewpoint Dewpoint Depression Visibility Wind Speed Wind Dir Waves Ship Positions

Aimaru

Last reported at 2018-Jul-19 06:32 UTC. Time now 2018-Jul-19 19:31 UTC.
Position N 34°60' E 139°23'.

Length 65 m; draft 3.8 m.

Type: Tanker. MMSI: 431007966.

Date/timePositionNaut miles runAvg speedWind from/ knotsBaromVisibWave heightAir tempDewpointWater temp
2018-Jul-19 06:32N 34°60' E 139°23'010.2
2018-Jul-19 06:29N 34°60' E 139°24'610.8
2018-Jul-19 05:56N 35°03' E 139°30'510.9
2018-Jul-19 05:30N 35°05' E 139°35'611.5
2018-Jul-19 05:00N 35°07' E 139°41'612.3
2018-Jul-19 04:30N 35°12' E 139°46'612.1
2018-Jul-19 04:01N 35°18' E 139°44'612.0
2018-Jul-19 03:30N 35°24' E 139°42'510.6
2018-Jul-19 03:00N 35°29' E 139°43'1 0.3
2018-Jul-18 23:19N 35°30' E 139°44'0 0.0
2018-Jul-18 22:53N 35°30' E 139°44'2 5.3
2018-Jul-18 22:30N 35°30' E 139°47'3 5.1
2018-Jul-18 21:58N 35°30' E 139°50'0 0.0
2018-Jul-18 21:25N 35°30' E 139°50'0 0.0
2018-Jul-18 20:49N 35°30' E 139°50'0 0.0
2018-Jul-18 20:25N 35°30' E 139°50'0 0.1
2018-Jul-18 19:52N 35°30' E 139°50'0 0.1
2018-Jul-18 19:19N 35°30' E 139°50'0 0.0
2018-Jul-18 08:43N 35°30' E 139°50'0 0.0
2018-Jul-18 08:25N 35°30' E 139°50'0 0.0
2018-Jul-18 07:58N 35°30' E 139°50'0 0.0
2018-Jul-18 07:28N 35°30' E 139°50'0 0.1
2018-Jul-18 06:55N 35°30' E 139°50'0 0.0
2018-Jul-18 06:11N 35°30' E 139°50'1 5.8
2018-Jul-18 06:00N 35°30' E 139°51'611.6
2018-Jul-18 05:30N 35°31' E 139°58'2 0.3
2018-Jul-17 23:30N 35°30' E 139°56'612.1
2018-Jul-17 23:00N 35°27' E 139°50'612.1
2018-Jul-17 22:30N 35°22' E 139°45'510.9
2018-Jul-17 22:00N 35°17' E 139°46'611.9
2018-Jul-17 21:30N 35°11' E 139°47'713.0
2018-Jul-17 21:00N 35°05' E 139°44'612.7
2018-Jul-17 20:30N 35°01' E 139°38'  
2018-Jul-13 07:44N 34°49' E 139°08'811.3
2018-Jul-13 07:02N 34°55' E 139°14'111.2
2018-Jul-13 06:58N 34°56' E 139°15'510.1
2018-Jul-13 06:28N 34°58' E 139°20'5 9.3
2018-Jul-13 05:58N 35°00' E 139°25'510.4
2018-Jul-13 05:28N 35°03' E 139°31'511.6
2018-Jul-13 05:00N 35°05' E 139°37'712.8
2018-Jul-13 04:30N 35°09' E 139°43'611.4
2018-Jul-13 04:00N 35°14' E 139°46'611.3
2018-Jul-13 03:30N 35°19' E 139°43'611.4
2018-Jul-13 03:00N 35°25' E 139°43'5 9.3
2018-Jul-13 02:30N 35°29' E 139°43'1 0.3
2018-Jul-12 23:04N 35°30' E 139°44'0 0.0
2018-Jul-12 23:00N 35°30' E 139°44'3 5.3
2018-Jul-12 22:30N 35°30' E 139°47'2 4.3
2018-Jul-12 22:00N 35°30' E 139°50'0 0.0
2018-Jul-12 21:30N 35°30' E 139°50'0 0.0
2018-Jul-12 20:51N 35°30' E 139°50'0 0.1
2018-Jul-12 20:30N 35°30' E 139°50'0 0.0
2018-Jul-12 20:00N 35°30' E 139°50'0 0.0
2018-Jul-12 19:30N 35°30' E 139°50'0 0.0
2018-Jul-12 19:00N 35°30' E 139°50'0 0.0
2018-Jul-12 18:27N 35°30' E 139°50'0 0.0
2018-Jul-12 17:57N 35°30' E 139°50'0 0.0
2018-Jul-12 17:30N 35°30' E 139°50'0 0.0
2018-Jul-12 17:00N 35°30' E 139°50'0 0.0
2018-Jul-12 16:27N 35°30' E 139°50'0 0.0
2018-Jul-12 16:00N 35°30' E 139°50'0 0.0
2018-Jul-12 15:30N 35°30' E 139°50'0 0.0
2018-Jul-12 15:00N 35°30' E 139°50'0 0.0
2018-Jul-12 14:30N 35°30' E 139°50'0 0.0
2018-Jul-12 14:00N 35°30' E 139°50'0 0.0
2018-Jul-12 13:30N 35°30' E 139°50'0 0.0
2018-Jul-12 12:57N 35°30' E 139°50'0 0.0
2018-Jul-12 11:36N 35°30' E 139°50'0 0.0
2018-Jul-12 11:21N 35°30' E 139°50'0 0.0
2018-Jul-12 10:42N 35°30' E 139°50'0 0.0
2018-Jul-12 08:27N 35°30' E 139°50'0 0.7
2018-Jul-12 08:00N 35°30' E 139°49'3 0.1
2018-Jul-11 03:30N 35°30' E 139°46'2 0.4
2018-Jul-10 22:55N 35°30' E 139°44'2 4.7
2018-Jul-10 22:30N 35°31' E 139°46'3 5.8
2018-Jul-10 22:00N 35°30' E 139°50'0 0.0
2018-Jul-10 21:12N 35°30' E 139°50'0 0.0
2018-Jul-10 21:00N 35°30' E 139°50'0 0.0
2018-Jul-10 19:33N 35°30' E 139°50'0 0.0
2018-Jul-10 19:15N 35°30' E 139°50'0 0.0
2018-Jul-10 18:54N 35°30' E 139°50'0 0.1
2018-Jul-10 18:24N 35°30' E 139°50'0 0.0
2018-Jul-10 18:00N 35°30' E 139°50'0 0.0
2018-Jul-10 17:30N 35°30' E 139°50'0 0.0
2018-Jul-10 17:00N 35°30' E 139°50'0 0.0
2018-Jul-10 16:30N 35°30' E 139°50'0 0.0
2018-Jul-10 16:00N 35°30' E 139°50'0 0.0
2018-Jul-10 15:30N 35°30' E 139°50'0 0.0
2018-Jul-10 15:00N 35°30' E 139°50'0 0.0
2018-Jul-10 14:30N 35°30' E 139°50'0 0.0
2018-Jul-10 14:00N 35°30' E 139°50'0 0.0
2018-Jul-10 13:30N 35°30' E 139°50'0 0.0
2018-Jul-10 13:00N 35°30' E 139°50'0 0.0
2018-Jul-10 12:30N 35°30' E 139°50'0 0.0
2018-Jul-10 11:57N 35°30' E 139°50'0 0.1
2018-Jul-10 11:24N 35°30' E 139°50'0 0.1
2018-Jul-10 11:00N 35°30' E 139°50'0 0.0
2018-Jul-10 10:30N 35°30' E 139°50'0 0.0
2018-Jul-10 09:57N 35°30' E 139°50'0 0.0
2018-Jul-10 09:30N 35°30' E 139°50'0 0.0
2018-Jul-10 09:00N 35°30' E 139°50'0 0.0
2018-Jul-10 08:30N 35°30' E 139°50'0 0.0
2018-Jul-10 08:00N 35°30' E 139°50'0 0.0
2018-Jul-10 07:30N 35°30' E 139°50'0 0.0
2018-Jul-10 07:00N 35°30' E 139°50'0 0.0
2018-Jul-10 06:30N 35°30' E 139°50'0 0.0
2018-Jul-10 06:00N 35°30' E 139°50'0 0.0
2018-Jul-10 05:30N 35°30' E 139°50'0 0.0
2018-Jul-10 05:00N 35°30' E 139°50'0 0.0
2018-Jul-10 04:30N 35°30' E 139°50'0 0.0
2018-Jul-10 04:00N 35°30' E 139°50'0 0.0
2018-Jul-10 03:30N 35°30' E 139°50'0 0.0
2018-Jul-10 03:00N 35°30' E 139°50'0 0.0
2018-Jul-10 02:27N 35°30' E 139°50'0 0.0
2018-Jul-10 02:00N 35°30' E 139°50'2 3.6
2018-Jul-10 01:30N 35°30' E 139°52'6 0.3
2018-Jul-09 08:35N 35°31' E 139°59'0 0.0
2018-Jul-09 08:20N 35°31' E 139°59'0 0.0
2018-Jul-09 07:50N 35°31' E 139°59'0 0.0
2018-Jul-09 07:29N 35°31' E 139°59'0 0.0
2018-Jul-09 06:59N 35°31' E 139°59'  
Track history (hours):
 
Tides and Currents Weather Stations Pressure Air Temp Water Temp Dewpoint Dewpoint Depression Visibility Wind Speed Wind Dir Waves Ship Positions

Aimaru

Last reported at 2018-Jul-19 06:32 UTC. Time now 2018-Jul-19 19:31 UTC.
Position N 34°60' E 139°23'.

Length 65 m; draft 3.8 m.

Type: Tanker. MMSI: 431007966.

Date/timePositionNaut miles runAvg speedWind from/ knotsBaromVisibWave heightAir tempDewpointWater temp
2018-Jul-19 06:32N 34°60' E 139°23'010.2
2018-Jul-19 06:29N 34°60' E 139°24'610.8
2018-Jul-19 05:56N 35°03' E 139°30'510.9
2018-Jul-19 05:30N 35°05' E 139°35'611.5
2018-Jul-19 05:00N 35°07' E 139°41'612.3
2018-Jul-19 04:30N 35°12' E 139°46'612.1
2018-Jul-19 04:01N 35°18' E 139°44'612.0
2018-Jul-19 03:30N 35°24' E 139°42'510.6
2018-Jul-19 03:00N 35°29' E 139°43'1 0.3
2018-Jul-18 23:19N 35°30' E 139°44'0 0.0
2018-Jul-18 22:53N 35°30' E 139°44'2 5.3
2018-Jul-18 22:30N 35°30' E 139°47'3 5.1
2018-Jul-18 21:58N 35°30' E 139°50'0 0.0
2018-Jul-18 21:25N 35°30' E 139°50'0 0.0
2018-Jul-18 20:49N 35°30' E 139°50'0 0.0
2018-Jul-18 20:25N 35°30' E 139°50'0 0.1
2018-Jul-18 19:52N 35°30' E 139°50'0 0.1
2018-Jul-18 19:19N 35°30' E 139°50'0 0.0
2018-Jul-18 08:43N 35°30' E 139°50'0 0.0
2018-Jul-18 08:25N 35°30' E 139°50'0 0.0
2018-Jul-18 07:58N 35°30' E 139°50'0 0.0
2018-Jul-18 07:28N 35°30' E 139°50'0 0.1
2018-Jul-18 06:55N 35°30' E 139°50'0 0.0
2018-Jul-18 06:11N 35°30' E 139°50'1 5.8
2018-Jul-18 06:00N 35°30' E 139°51'611.6
2018-Jul-18 05:30N 35°31' E 139°58'2 0.3
2018-Jul-17 23:30N 35°30' E 139°56'612.1
2018-Jul-17 23:00N 35°27' E 139°50'612.1
2018-Jul-17 22:30N 35°22' E 139°45'510.9
2018-Jul-17 22:00N 35°17' E 139°46'611.9
2018-Jul-17 21:30N 35°11' E 139°47'713.0
2018-Jul-17 21:00N 35°05' E 139°44'612.7
2018-Jul-17 20:30N 35°01' E 139°38'  
2018-Jul-13 07:44N 34°49' E 139°08'811.3
2018-Jul-13 07:02N 34°55' E 139°14'111.2
2018-Jul-13 06:58N 34°56' E 139°15'510.1
2018-Jul-13 06:28N 34°58' E 139°20'5 9.3
2018-Jul-13 05:58N 35°00' E 139°25'510.4
2018-Jul-13 05:28N 35°03' E 139°31'511.6
2018-Jul-13 05:00N 35°05' E 139°37'712.8
2018-Jul-13 04:30N 35°09' E 139°43'611.4
2018-Jul-13 04:00N 35°14' E 139°46'611.3
2018-Jul-13 03:30N 35°19' E 139°43'611.4
2018-Jul-13 03:00N 35°25' E 139°43'5 9.3
2018-Jul-13 02:30N 35°29' E 139°43'1 0.3
2018-Jul-12 23:04N 35°30' E 139°44'0 0.0
2018-Jul-12 23:00N 35°30' E 139°44'3 5.3
2018-Jul-12 22:30N 35°30' E 139°47'2 4.3
2018-Jul-12 22:00N 35°30' E 139°50'0 0.0
2018-Jul-12 21:30N 35°30' E 139°50'0 0.0
2018-Jul-12 20:51N 35°30' E 139°50'0 0.1
2018-Jul-12 20:30N 35°30' E 139°50'0 0.0
2018-Jul-12 20:00N 35°30' E 139°50'0 0.0
2018-Jul-12 19:30N 35°30' E 139°50'0 0.0
2018-Jul-12 19:00N 35°30' E 139°50'0 0.0
2018-Jul-12 18:27N 35°30' E 139°50'0 0.0
2018-Jul-12 17:57N 35°30' E 139°50'0 0.0
2018-Jul-12 17:30N 35°30' E 139°50'0 0.0
2018-Jul-12 17:00N 35°30' E 139°50'0 0.0
2018-Jul-12 16:27N 35°30' E 139°50'0 0.0
2018-Jul-12 16:00N 35°30' E 139°50'0 0.0
2018-Jul-12 15:30N 35°30' E 139°50'0 0.0
2018-Jul-12 15:00N 35°30' E 139°50'0 0.0
2018-Jul-12 14:30N 35°30' E 139°50'0 0.0
2018-Jul-12 14:00N 35°30' E 139°50'0 0.0
2018-Jul-12 13:30N 35°30' E 139°50'0 0.0
2018-Jul-12 12:57N 35°30' E 139°50'0 0.0
2018-Jul-12 11:36N 35°30' E 139°50'0 0.0
2018-Jul-12 11:21N 35°30' E 139°50'0 0.0
2018-Jul-12 10:42N 35°30' E 139°50'0 0.0
2018-Jul-12 08:27N 35°30' E 139°50'0 0.7
2018-Jul-12 08:00N 35°30' E 139°49'3 0.1
2018-Jul-11 03:30N 35°30' E 139°46'2 0.4
2018-Jul-10 22:55N 35°30' E 139°44'2 4.7
2018-Jul-10 22:30N 35°31' E 139°46'3 5.8
2018-Jul-10 22:00N 35°30' E 139°50'0 0.0
2018-Jul-10 21:12N 35°30' E 139°50'0 0.0
2018-Jul-10 21:00N 35°30' E 139°50'0 0.0
2018-Jul-10 19:33N 35°30' E 139°50'0 0.0
2018-Jul-10 19:15N 35°30' E 139°50'0 0.0
2018-Jul-10 18:54N 35°30' E 139°50'0 0.1
2018-Jul-10 18:24N 35°30' E 139°50'0 0.0
2018-Jul-10 18:00N 35°30' E 139°50'0 0.0
2018-Jul-10 17:30N 35°30' E 139°50'0 0.0
2018-Jul-10 17:00N 35°30' E 139°50'0 0.0
2018-Jul-10 16:30N 35°30' E 139°50'0 0.0
2018-Jul-10 16:00N 35°30' E 139°50'0 0.0
2018-Jul-10 15:30N 35°30' E 139°50'0 0.0
2018-Jul-10 15:00N 35°30' E 139°50'0 0.0
2018-Jul-10 14:30N 35°30' E 139°50'0 0.0
2018-Jul-10 14:00N 35°30' E 139°50'0 0.0
2018-Jul-10 13:30N 35°30' E 139°50'0 0.0
2018-Jul-10 13:00N 35°30' E 139°50'0 0.0
2018-Jul-10 12:30N 35°30' E 139°50'0 0.0
2018-Jul-10 11:57N 35°30' E 139°50'0 0.1
2018-Jul-10 11:24N 35°30' E 139°50'0 0.1
2018-Jul-10 11:00N 35°30' E 139°50'0 0.0
2018-Jul-10 10:30N 35°30' E 139°50'0 0.0
2018-Jul-10 09:57N 35°30' E 139°50'0 0.0
2018-Jul-10 09:30N 35°30' E 139°50'0 0.0
2018-Jul-10 09:00N 35°30' E 139°50'0 0.0
2018-Jul-10 08:30N 35°30' E 139°50'0 0.0
2018-Jul-10 08:00N 35°30' E 139°50'0 0.0
2018-Jul-10 07:30N 35°30' E 139°50'0 0.0
2018-Jul-10 07:00N 35°30' E 139°50'0 0.0
2018-Jul-10 06:30N 35°30' E 139°50'0 0.0
2018-Jul-10 06:00N 35°30' E 139°50'0 0.0
2018-Jul-10 05:30N 35°30' E 139°50'0 0.0
2018-Jul-10 05:00N 35°30' E 139°50'0 0.0
2018-Jul-10 04:30N 35°30' E 139°50'0 0.0
2018-Jul-10 04:00N 35°30' E 139°50'0 0.0
2018-Jul-10 03:30N 35°30' E 139°50'0 0.0
2018-Jul-10 03:00N 35°30' E 139°50'0 0.0
2018-Jul-10 02:27N 35°30' E 139°50'0 0.0
2018-Jul-10 02:00N 35°30' E 139°50'2 3.6
2018-Jul-10 01:30N 35°30' E 139°52'6 0.3
2018-Jul-09 08:35N 35°31' E 139°59'0 0.0
2018-Jul-09 08:20N 35°31' E 139°59'0 0.0
2018-Jul-09 07:50N 35°31' E 139°59'0 0.0
2018-Jul-09 07:29N 35°31' E 139°59'0 0.0
2018-Jul-09 06:59N 35°31' E 139°59'  

Dump ship's entire track history